sensor_id;sensor_type;location;lat;lon;timestamp;temperature;humidity
63899;HTU21D;50070;-32.946;-60.652;2023-07-29T21:05:13;17.47;67.66
63899;HTU21D;50070;-32.946;-60.652;2023-07-29T21:07:41;17.61;67.75
63899;HTU21D;50070;-32.946;-60.652;2023-07-29T21:10:08;17.67;67.41
63899;HTU21D;50070;-32.946;-60.652;2023-07-29T21:12:34;17.72;67.14
63899;HTU21D;50070;-32.946;-60.652;2023-07-29T21:15:00;17.72;66.91
63899;HTU21D;50070;-32.946;-60.652;2023-07-29T21:17:27;17.74;66.99
63899;HTU21D;50070;-32.946;-60.652;2023-07-29T21:19:55;17.69;67.48
63899;HTU21D;50070;-32.946;-60.652;2023-07-29T21:22:22;17.67;67.33
63899;HTU21D;50070;-32.946;-60.652;2023-07-29T21:24:49;17.83;66.74
63899;HTU21D;50070;-32.946;-60.652;2023-07-29T21:27:15;17.84;66.82
63899;HTU21D;50070;-32.946;-60.652;2023-07-29T21:29:42;17.67;66.91
63899;HTU21D;50070;-32.946;-60.652;2023-07-29T21:32:09;17.77;66.03
63899;HTU21D;50070;-32.946;-60.652;2023-07-29T21:34:36;17.66;65.63
63899;HTU21D;50070;-32.946;-60.652;2023-07-29T21:37:02;17.70;65.52
63899;HTU21D;50070;-32.946;-60.652;2023-07-29T21:39:29;17.66;65.95
63899;HTU21D;50070;-32.946;-60.652;2023-07-29T21:41:56;17.63;66.28
63899;HTU21D;50070;-32.946;-60.652;2023-07-29T21:44:23;17.60;66.10
63899;HTU21D;50070;-32.946;-60.652;2023-07-29T21:46:50;17.67;65.85
63899;HTU21D;50070;-32.946;-60.652;2023-07-29T21:49:17;17.55;65.82
63899;HTU21D;50070;-32.946;-60.652;2023-07-29T21:51:43;17.54;65.69
63899;HTU21D;50070;-32.946;-60.652;2023-07-29T21:54:10;17.46;66.16
63899;HTU21D;50070;-32.946;-60.652;2023-07-29T21:56:36;17.31;66.30
63899;HTU21D;50070;-32.946;-60.652;2023-07-29T21:59:03;17.37;66.40
63899;HTU21D;50070;-32.946;-60.652;2023-07-29T22:01:30;17.58;65.36
63899;HTU21D;50070;-32.946;-60.652;2023-07-29T22:03:57;17.36;66.30
63899;HTU21D;50070;-32.946;-60.652;2023-07-29T22:06:24;17.41;66.47
63899;HTU21D;50070;-32.946;-60.652;2023-07-29T22:08:51;17.40;66.75
63899;HTU21D;50070;-32.946;-60.652;2023-07-29T22:11:18;17.21;68.01
63899;HTU21D;50070;-32.946;-60.652;2023-07-29T22:13:45;17.19;68.19
63899;HTU21D;50070;-32.946;-60.652;2023-07-29T22:16:12;17.11;68.35
63899;HTU21D;50070;-32.946;-60.652;2023-07-29T22:18:39;17.04;68.78
63899;HTU21D;50070;-32.946;-60.652;2023-07-29T22:21:05;17.00;69.53
63899;HTU21D;50070;-32.946;-60.652;2023-07-29T22:23:32;17.13;69.06
63899;HTU21D;50070;-32.946;-60.652;2023-07-29T22:26:03;17.00;69.55
63899;HTU21D;50070;-32.946;-60.652;2023-07-29T22:28:32;16.96;70.28
63899;HTU21D;50070;-32.946;-60.652;2023-07-29T22:31:04;16.91;70.29
63899;HTU21D;50070;-32.946;-60.652;2023-07-29T22:33:32;16.84;69.72
63899;HTU21D;50070;-32.946;-60.652;2023-07-29T22:36:00;16.82;69.38
63899;HTU21D;50070;-32.946;-60.652;2023-07-29T22:38:28;16.87;67.58
63899;HTU21D;50070;-32.946;-60.652;2023-07-29T22:40:55;16.90;67.01
63899;HTU21D;50070;-32.946;-60.652;2023-07-29T22:43:22;16.74;66.60
63899;HTU21D;50070;-32.946;-60.652;2023-07-29T22:45:57;16.85;65.21
63899;HTU21D;50070;-32.946;-60.652;2023-07-29T22:48:25;16.81;64.38
63899;HTU21D;50070;-32.946;-60.652;2023-07-29T22:50:53;16.79;64.00
63899;HTU21D;50070;-32.946;-60.652;2023-07-29T22:53:20;16.88;63.08
63899;HTU21D;50070;-32.946;-60.652;2023-07-29T22:55:48;17.00;61.64
63899;HTU21D;50070;-32.946;-60.652;2023-07-29T22:58:16;16.71;61.60
63899;HTU21D;50070;-32.946;-60.652;2023-07-29T23:00:47;16.79;61.06
63899;HTU21D;50070;-32.946;-60.652;2023-07-29T23:03:15;16.80;61.38
63899;HTU21D;50070;-32.946;-60.652;2023-07-29T23:05:41;16.76;61.87
63899;HTU21D;50070;-32.946;-60.652;2023-07-29T23:08:08;16.74;61.88
63899;HTU21D;50070;-32.946;-60.652;2023-07-29T23:10:35;16.73;62.16
63899;HTU21D;50070;-32.946;-60.652;2023-07-29T23:13:03;16.79;62.18
63899;HTU21D;50070;-32.946;-60.652;2023-07-29T23:15:41;16.81;63.05
63899;HTU21D;50070;-32.946;-60.652;2023-07-29T23:18:10;16.85;63.47
63899;HTU21D;50070;-32.946;-60.652;2023-07-29T23:20:37;16.69;64.74
63899;HTU21D;50070;-32.946;-60.652;2023-07-29T23:23:04;16.62;65.17
63899;HTU21D;50070;-32.946;-60.652;2023-07-29T23:25:32;16.67;65.21
63899;HTU21D;50070;-32.946;-60.652;2023-07-29T23:27:59;16.64;65.09
63899;HTU21D;50070;-32.946;-60.652;2023-07-29T23:30:26;16.57;64.82
63899;HTU21D;50070;-32.946;-60.652;2023-07-29T23:32:52;16.71;64.32
63899;HTU21D;50070;-32.946;-60.652;2023-07-29T23:35:19;16.69;64.13
63899;HTU21D;50070;-32.946;-60.652;2023-07-29T23:37:46;16.65;64.23
63899;HTU21D;50070;-32.946;-60.652;2023-07-29T23:40:13;16.66;63.78
63899;HTU21D;50070;-32.946;-60.652;2023-07-29T23:42:39;16.66;63.26
63899;HTU21D;50070;-32.946;-60.652;2023-07-29T23:45:06;16.64;62.63
63899;HTU21D;50070;-32.946;-60.652;2023-07-29T23:47:33;16.56;62.52
63899;HTU21D;50070;-32.946;-60.652;2023-07-29T23:50:00;16.67;61.31
63899;HTU21D;50070;-32.946;-60.652;2023-07-29T23:52:27;16.65;61.02
63899;HTU21D;50070;-32.946;-60.652;2023-07-29T23:54:53;16.69;60.88
63899;HTU21D;50070;-32.946;-60.652;2023-07-29T23:57:20;16.63;60.83
63899;HTU21D;50070;-32.946;-60.652;2023-07-29T23:59:47;16.50;61.46
